Terminal Aerodrome Forecast
Issued by NWS Charleston, WV

Current Version | Previous Version | Graphics & Text | Print | Product List | Glossary On
Versions: 1 2 3 4 5 6 7 8 9 10 11 12 13 14 15 16 17 18 19 20 21 22 23 24 25
163
FTUS41 KRLX 152332
TAFPKB
TAF
KPKB 152332Z 1600/1624 02004KT 5SM -RA SCT015 OVC026
     FM160300 VRB03KT 4SM -RA OVC015
     FM160700 VRB03KT 2SM BR OVC011
     FM160900 00000KT 2SM BR OVC009
     FM161200 00000KT 3SM BR OVC007
     FM161900 00000KT P6SM BKN012=

USA.gov is the U.S. government's official web portal to all federal, state and local government web resources and services.